createdAt,value
2022-11-05T00:00:02.387Z,99344.88
2022-11-05T00:02:50.133Z,99347.72
2022-11-05T00:05:36.129Z,99343.00
2022-11-05T00:08:22.959Z,99337.06
2022-11-05T00:10:50.457Z,99340.31
2022-11-05T00:13:36.477Z,99344.34
2022-11-05T00:16:22.150Z,99334.38
2022-11-05T00:19:06.516Z,99347.63
2022-11-05T00:21:53.471Z,99355.53
2022-11-05T00:24:39.453Z,99343.34
2022-11-05T00:27:07.389Z,99346.53
2022-11-05T00:29:34.748Z,99340.16
2022-11-05T00:32:02.203Z,99367.50
2022-11-05T00:34:29.499Z,99341.97
2022-11-05T00:36:56.706Z,99380.78
2022-11-05T00:39:23.960Z,99358.75
2022-11-05T00:42:11.162Z,99368.75
2022-11-05T00:45:16.894Z,99386.38
2022-11-05T00:48:02.683Z,99387.84
2022-11-05T00:50:30.490Z,99363.66
2022-11-05T00:53:00.386Z,99389.56
2022-11-05T00:55:31.320Z,99363.47
2022-11-05T00:57:58.948Z,99360.34
2022-11-05T01:00:29.340Z,99386.75
2022-11-05T01:03:06.069Z,99384.69
2022-11-05T01:05:34.687Z,99391.19
2022-11-05T01:08:02.077Z,99388.53
2022-11-05T01:10:29.470Z,99391.28
2022-11-05T01:12:57.294Z,99395.16
2022-11-05T01:15:24.902Z,99371.56
2022-11-05T01:17:52.458Z,99384.13
2022-11-05T01:20:19.885Z,99389.69
2022-11-05T01:22:47.098Z,99370.88
2022-11-05T01:25:14.858Z,99380.56
2022-11-05T01:27:42.166Z,99381.59
2022-11-05T01:30:10.207Z,99372.38
2022-11-05T01:32:37.811Z,99376.25
2022-11-05T01:35:07.324Z,99376.50
2022-11-05T01:37:36.366Z,99370.28
2022-11-05T01:40:04.252Z,99360.44
2022-11-05T01:42:33.061Z,99375.91
2022-11-05T01:45:13.126Z,99389.78
2022-11-05T01:47:53.374Z,99381.69
2022-11-05T01:50:32.840Z,99401.94
2022-11-05T01:53:13.529Z,99377.13
2022-11-05T01:55:59.328Z,99397.69
2022-11-05T01:58:31.839Z,99401.94
2022-11-05T02:00:59.523Z,99379.97
2022-11-05T02:03:27.161Z,99399.84
2022-11-05T02:05:56.908Z,99390.72
2022-11-05T02:08:53.376Z,99396.84
2022-11-05T02:11:20.811Z,99391.66
2022-11-05T02:13:49.229Z,99365.53
2022-11-05T02:16:19.460Z,99387.75
2022-11-05T02:19:04.562Z,99370.88
2022-11-05T02:21:47.065Z,99386.13
2022-11-05T02:24:20.385Z,99389.53
2022-11-05T02:27:10.839Z,99391.38
2022-11-05T02:29:50.418Z,99387.31
2022-11-05T02:32:36.170Z,99386.63
2022-11-05T02:35:34.237Z,99399.63
2022-11-05T02:38:09.806Z,99397.81
2022-11-05T02:40:49.669Z,99422.72
2022-11-05T02:43:31.084Z,99425.69
2022-11-05T02:46:11.579Z,99418.44
2022-11-05T02:48:38.746Z,99424.69
2022-11-05T02:51:33.066Z,99427.66
2022-11-05T02:54:17.157Z,99420.25
2022-11-05T02:56:49.711Z,99438.25
2022-11-05T02:59:16.974Z,99415.00
2022-11-05T03:01:46.971Z,99428.50
2022-11-05T03:04:17.838Z,99455.25
2022-11-05T03:06:57.358Z,99467.50
2022-11-05T03:09:30.638Z,99473.75
2022-11-05T03:12:03.927Z,99480.38
2022-11-05T03:14:37.147Z,99476.34
2022-11-05T03:17:36.378Z,99476.66
2022-11-05T03:20:21.699Z,99485.03
2022-11-05T03:23:01.110Z,99492.47
2022-11-05T03:25:30.366Z,99483.56
2022-11-05T03:28:02.876Z,99465.16
2022-11-05T03:30:33.799Z,99466.09
2022-11-05T03:33:06.747Z,99479.16
2022-11-05T03:35:41.689Z,99385.25
2022-11-05T03:38:21.843Z,99490.91
2022-11-05T03:40:54.260Z,99492.06
2022-11-05T03:43:24.682Z,99477.09
2022-11-05T03:46:02.551Z,99471.78
2022-11-05T03:48:31.966Z,99484.06
2022-11-05T03:51:08.117Z,99488.25
2022-11-05T03:53:43.517Z,99467.91
2022-11-05T03:56:18.286Z,99480.50
2022-11-05T03:58:46.554Z,99486.22
2022-11-05T04:01:14.807Z,99488.53
2022-11-05T04:03:42.128Z,99456.34
2022-11-05T04:06:28.993Z,99473.38
2022-11-05T04:09:14.880Z,99486.38
2022-11-05T04:12:00.691Z,99452.38
2022-11-05T04:14:27.978Z,99479.94
2022-11-05T04:17:07.120Z,99489.28
2022-11-05T04:19:58.054Z,99490.28
2022-11-05T04:22:45.847Z,99481.63
2022-11-05T04:25:13.999Z,99493.13
2022-11-05T04:27:41.693Z,99490.56
2022-11-05T04:30:18.559Z,99467.53
2022-11-05T04:33:13.219Z,99459.88
2022-11-05T04:35:43.366Z,99418.03
2022-11-05T04:38:16.137Z,99436.72
2022-11-05T04:40:44.799Z,99435.09
2022-11-05T04:43:15.345Z,99477.19
2022-11-05T04:45:43.257Z,99452.28
2022-11-05T04:48:11.263Z,99474.69
2022-11-05T04:50:39.337Z,99469.09
2022-11-05T04:53:06.755Z,99498.28
2022-11-05T04:55:33.963Z,99461.34
2022-11-05T04:58:01.205Z,99435.53
2022-11-05T05:00:28.534Z,99491.78
2022-11-05T05:02:55.846Z,99495.34
2022-11-05T05:05:23.221Z,99506.22
2022-11-05T05:07:50.507Z,99515.09
2022-11-05T05:10:17.861Z,99510.19
2022-11-05T05:12:45.240Z,99538.44
2022-11-05T05:15:12.466Z,99527.56
2022-11-05T05:17:39.688Z,99526.72
2022-11-05T05:20:26.004Z,99520.81
2022-11-05T05:22:56.438Z,99506.44
2022-11-05T05:25:23.883Z,99531.19
2022-11-05T05:27:51.135Z,99521.66
2022-11-05T05:30:18.633Z,99545.03
2022-11-05T05:32:45.878Z,99535.72
2022-11-05T05:35:13.263Z,99535.00
2022-11-05T05:37:40.473Z,99553.91
2022-11-05T05:40:08.790Z,99534.38
2022-11-05T05:42:41.784Z,99535.38
2022-11-05T05:45:11.581Z,99552.47
2022-11-05T05:47:38.864Z,99532.81
2022-11-05T05:50:06.290Z,99533.72
2022-11-05T05:52:33.648Z,99573.13
2022-11-05T05:55:00.930Z,99573.34
2022-11-05T05:57:28.196Z,99564.25
2022-11-05T05:59:55.431Z,99576.25
2022-11-05T06:02:23.095Z,99578.66
2022-11-05T06:04:50.423Z,99558.06
2022-11-05T06:07:17.664Z,99582.44
2022-11-05T06:09:45.051Z,99568.84
2022-11-05T06:12:12.572Z,99589.28
2022-11-05T06:14:39.828Z,99582.56
2022-11-05T06:17:07.961Z,99598.19
2022-11-05T06:19:35.241Z,99588.00
2022-11-05T06:22:02.430Z,99583.75
2022-11-05T06:24:29.677Z,99564.06
2022-11-05T06:26:56.950Z,99585.91
2022-11-05T06:29:24.161Z,99562.59
2022-11-05T06:31:51.382Z,99592.06
2022-11-05T06:34:18.645Z,99606.63
2022-11-05T06:36:45.954Z,99596.28
2022-11-05T06:39:13.196Z,99611.69
2022-11-05T06:42:04.164Z,99556.31
2022-11-05T06:44:27.891Z,99613.41
2022-11-05T06:46:55.095Z,99571.84
2022-11-05T06:49:25.662Z,99609.25
2022-11-05T06:51:53.264Z,99633.06
2022-11-05T06:54:20.974Z,99614.44
2022-11-05T06:56:48.295Z,99635.38
2022-11-05T06:59:15.632Z,99631.78
2022-11-05T07:01:42.916Z,99633.41
2022-11-05T07:04:12.420Z,99645.56
2022-11-05T07:06:39.660Z,99633.88
2022-11-05T07:09:06.961Z,99652.78
2022-11-05T07:11:34.200Z,99645.69
2022-11-05T07:14:01.470Z,99647.72
2022-11-05T07:16:28.742Z,99640.81
2022-11-05T07:18:56.064Z,99654.41
2022-11-05T07:21:23.367Z,99659.00
2022-11-05T07:23:50.591Z,99658.09
2022-11-05T07:26:17.818Z,99667.00
2022-11-05T07:28:45.425Z,99657.63
2022-11-05T07:31:12.769Z,99674.09
2022-11-05T07:33:39.972Z,99670.63
2022-11-05T07:36:07.601Z,99679.53
2022-11-05T07:38:34.829Z,99670.38
2022-11-05T07:41:02.217Z,99654.03
2022-11-05T07:43:29.528Z,99644.78
2022-11-05T07:45:56.737Z,99671.19
2022-11-05T07:48:24.051Z,99637.81
2022-11-05T07:50:53.096Z,99662.44
2022-11-05T07:53:21.192Z,99680.13
2022-11-05T07:55:48.467Z,99673.44
2022-11-05T07:58:15.846Z,99656.47
2022-11-05T08:00:43.285Z,99666.72
2022-11-05T08:03:14.062Z,99674.47
2022-11-05T08:05:44.721Z,99663.25
2022-11-05T08:08:15.120Z,99669.22
2022-11-05T08:10:43.009Z,99667.94
2022-11-05T08:13:13.408Z,99659.44
2022-11-05T08:15:42.718Z,99670.63
2022-11-05T08:18:15.971Z,99673.91
2022-11-05T08:20:45.361Z,99655.38
2022-11-05T08:23:13.002Z,99649.22
2022-11-05T08:25:41.187Z,99649.16
2022-11-05T08:28:11.525Z,99681.00
2022-11-05T08:30:39.186Z,99654.28
2022-11-05T08:33:12.292Z,99678.19
2022-11-05T08:35:40.397Z,99672.66
2022-11-05T08:38:09.870Z,99638.19
2022-11-05T08:40:37.944Z,99674.88
2022-11-05T08:43:07.180Z,99659.00
2022-11-05T08:45:38.218Z,99666.16
2022-11-05T08:48:15.407Z,99658.03
2022-11-05T08:50:44.161Z,99684.94
2022-11-05T08:53:12.747Z,99689.41
2022-11-05T08:55:40.670Z,99694.72
2022-11-05T08:58:12.649Z,99694.00
2022-11-05T09:00:40.227Z,99689.47
2022-11-05T09:03:09.400Z,99690.25
2022-11-05T09:05:39.379Z,99665.13
2022-11-05T09:08:12.710Z,99690.25
2022-11-05T09:10:41.063Z,99664.31
2022-11-05T09:13:11.830Z,99654.06
2022-11-05T09:15:44.317Z,99672.19
2022-11-05T09:18:14.917Z,99688.22
2022-11-05T09:20:42.699Z,99693.13
2022-11-05T09:23:11.960Z,99688.09
2022-11-05T09:25:39.495Z,99707.88
2022-11-05T09:28:16.156Z,99689.69
2022-11-05T09:30:46.747Z,99694.75
2022-11-05T09:33:16.145Z,99700.91
2022-11-05T09:35:43.647Z,99675.50
2022-11-05T09:38:11.368Z,99701.94
2022-11-05T09:41:04.867Z,99709.16
2022-11-05T09:43:43.504Z,99686.34
2022-11-05T09:46:27.131Z,99701.53
2022-11-05T09:49:04.270Z,99698.78
2022-11-05T09:51:32.701Z,99691.16
2022-11-05T09:54:04.307Z,99674.06
2022-11-05T09:56:35.023Z,99704.75
2022-11-05T09:59:14.394Z,99653.75
2022-11-05T10:01:43.651Z,99669.59
2022-11-05T10:04:21.180Z,99701.59
2022-11-05T10:06:59.402Z,99676.34
2022-11-05T10:09:31.374Z,99701.22
2022-11-05T10:12:04.426Z,99689.50
2022-11-05T10:14:36.678Z,99708.03
2022-11-05T10:17:26.128Z,99708.09
2022-11-05T10:20:08.376Z,99704.41
2022-11-05T10:22:36.874Z,99707.59
2022-11-05T10:25:17.202Z,99714.06
2022-11-05T10:27:53.267Z,99697.38
2022-11-05T10:30:21.777Z,99697.66
2022-11-05T10:32:54.610Z,99706.34
2022-11-05T10:35:23.824Z,99698.47
2022-11-05T10:37:53.706Z,99698.59
2022-11-05T10:40:37.453Z,99709.16
2022-11-05T10:43:15.871Z,99686.72
2022-11-05T10:45:59.810Z,99709.69
2022-11-05T10:48:43.975Z,99701.81
2022-11-05T10:51:11.881Z,99687.53
2022-11-05T10:53:43.689Z,99699.09
2022-11-05T10:56:37.714Z,99715.28
2022-11-05T10:59:18.719Z,99684.47
2022-11-05T11:01:46.626Z,99691.66
2022-11-05T11:04:21.918Z,99707.84
2022-11-05T11:06:55.248Z,99718.19
2022-11-05T11:09:33.028Z,99703.06
2022-11-05T11:12:15.530Z,99704.53
2022-11-05T11:14:43.126Z,99729.09
2022-11-05T11:17:26.896Z,99739.00
2022-11-05T11:20:21.842Z,99739.44
2022-11-05T11:23:14.043Z,99726.59
2022-11-05T11:25:53.566Z,99695.19
2022-11-05T11:28:32.971Z,99699.94
2022-11-05T11:31:11.381Z,99731.72
2022-11-05T11:33:40.505Z,99725.81
2022-11-05T11:36:10.637Z,99735.22
2022-11-05T11:38:38.822Z,99731.47
2022-11-05T11:41:20.483Z,99731.72
2022-11-05T11:43:48.090Z,99726.75
2022-11-05T11:46:19.857Z,99718.28
2022-11-05T11:48:49.067Z,99715.50
2022-11-05T11:51:25.718Z,99741.72
2022-11-05T11:53:57.686Z,99745.31
2022-11-05T11:56:25.085Z,99748.44
2022-11-05T11:58:54.615Z,99718.38
2022-11-05T12:01:41.444Z,99744.63
2022-11-05T12:04:18.066Z,99751.94
2022-11-05T12:07:02.993Z,99737.72
2022-11-05T12:10:22.022Z,99759.41
2022-11-05T12:13:11.168Z,99766.03
2022-11-05T12:15:41.654Z,99768.25
2022-11-05T12:18:26.215Z,99736.34
2022-11-05T12:21:06.330Z,99767.81
2022-11-05T12:23:58.633Z,99764.09
2022-11-05T12:26:50.727Z,99768.44
2022-11-05T12:29:35.962Z,99766.41
2022-11-05T12:32:09.614Z,99755.41
2022-11-05T12:34:55.855Z,99754.25
2022-11-05T12:37:53.877Z,99763.69
2022-11-05T12:40:36.643Z,99769.81
2022-11-05T12:43:16.439Z,99781.41
2022-11-05T12:46:07.151Z,99769.72
2022-11-05T12:48:58.794Z,99782.53
2022-11-05T12:52:10.574Z,99787.03
2022-11-05T12:55:05.055Z,99783.69
2022-11-05T12:57:36.212Z,99752.00
2022-11-05T13:00:15.566Z,99781.69
2022-11-05T13:03:18.375Z,99773.53
2022-11-05T13:05:51.156Z,99765.34
2022-11-05T13:08:42.002Z,99755.88
2022-11-05T13:11:21.166Z,99770.81
2022-11-05T13:14:20.132Z,99753.16
2022-11-05T13:16:50.962Z,99750.53
2022-11-05T13:19:30.148Z,99778.78
2022-11-05T13:22:09.734Z,99784.91
2022-11-05T13:24:53.722Z,99770.28
2022-11-05T13:27:49.036Z,99781.22
2022-11-05T13:30:22.928Z,99777.09
2022-11-05T13:33:15.025Z,99785.63
2022-11-05T13:36:12.729Z,99784.91
2022-11-05T13:38:59.319Z,99775.31
2022-11-05T13:41:48.505Z,99761.97
2022-11-05T13:44:15.659Z,99782.47
2022-11-05T13:46:55.985Z,99790.97
2022-11-05T13:49:32.438Z,99786.69
2022-11-05T13:52:33.622Z,99783.13
2022-11-05T13:55:31.944Z,99776.47
2022-11-05T13:58:32.786Z,99786.78
2022-11-05T14:01:12.122Z,99799.34
2022-11-05T14:03:49.322Z,99797.13
2022-11-05T14:06:26.375Z,99784.81
2022-11-05T14:09:00.550Z,99806.94
2022-11-05T14:11:32.105Z,99807.94
2022-11-05T14:14:03.330Z,99786.22
2022-11-05T14:16:53.831Z,99817.13
2022-11-05T14:19:28.177Z,99810.28
2022-11-05T14:21:59.634Z,99775.66
2022-11-05T14:24:50.117Z,99819.25
2022-11-05T14:27:17.276Z,99836.84
2022-11-05T14:29:49.431Z,99800.53
2022-11-05T14:32:19.640Z,99816.34
2022-11-05T14:35:37.838Z,99804.47
2022-11-05T14:38:17.287Z,99771.22
2022-11-05T14:40:46.085Z,99786.09
2022-11-05T14:43:24.401Z,99807.16
2022-11-05T14:46:00.619Z,99791.09
2022-11-05T14:48:37.616Z,99809.06
2022-11-05T14:51:38.214Z,99812.06
2022-11-05T14:54:08.435Z,99824.50
2022-11-05T14:56:53.226Z,99830.22
2022-11-05T14:59:31.521Z,99841.16
2022-11-05T15:02:11.859Z,99845.84
2022-11-05T15:04:42.679Z,99852.19
2022-11-05T15:07:09.947Z,99848.63
2022-11-05T15:10:12.467Z,99845.16
2022-11-05T15:12:56.795Z,99830.84
2022-11-05T15:15:29.865Z,99805.00
2022-11-05T15:18:18.918Z,99850.81
2022-11-05T15:20:49.801Z,99836.09
2022-11-05T15:23:21.552Z,99823.47
2022-11-05T15:26:18.781Z,99849.19
2022-11-05T15:28:53.566Z,99852.41
2022-11-05T15:31:28.868Z,99856.03
2022-11-05T15:34:25.014Z,99866.91
2022-11-05T15:37:00.756Z,99871.00
2022-11-05T15:39:29.748Z,99868.34
2022-11-05T15:42:01.806Z,99871.31
2022-11-05T15:44:31.826Z,99869.75
2022-11-05T15:47:25.501Z,99878.47
2022-11-05T15:50:08.674Z,99888.47
2022-11-05T15:52:45.653Z,99887.94
2022-11-05T15:55:12.928Z,99892.28
2022-11-05T15:57:51.807Z,99898.97
2022-11-05T16:00:22.647Z,99907.56
2022-11-05T16:02:59.403Z,99895.06
2022-11-05T16:05:30.257Z,99915.59
2022-11-05T16:07:58.930Z,99908.94
2022-11-05T16:10:32.587Z,99922.84
2022-11-05T16:13:23.097Z,99926.41
2022-11-05T16:15:59.082Z,99926.44
2022-11-05T16:18:33.218Z,99920.91
2022-11-05T16:21:18.897Z,99928.88
2022-11-05T16:23:59.901Z,99904.59
2022-11-05T16:29:34.124Z,99892.00
2022-11-05T16:32:16.043Z,99890.56
2022-11-05T16:34:50.932Z,99900.88
2022-11-05T16:37:22.483Z,99930.13
2022-11-05T16:39:50.095Z,99950.72
2022-11-05T16:42:23.544Z,99951.63
2022-11-05T16:44:52.773Z,99948.00
2022-11-05T16:47:20.714Z,99934.47
2022-11-05T16:49:49.004Z,99942.88
2022-11-05T16:52:16.679Z,99920.09
2022-11-05T16:54:44.174Z,99912.66
2022-11-05T16:57:23.545Z,99934.78
2022-11-05T16:59:50.833Z,99941.56
2022-11-05T17:02:18.100Z,99944.84
2022-11-05T17:04:45.595Z,99942.75
2022-11-05T17:07:12.939Z,99922.13
2022-11-05T17:09:40.163Z,99942.06
2022-11-05T17:12:07.369Z,99944.69
2022-11-05T17:14:34.600Z,99960.00
2022-11-05T17:17:02.323Z,99959.19
2022-11-05T17:19:29.535Z,99950.81
2022-11-05T17:21:56.846Z,99847.53
2022-11-05T17:24:24.174Z,99932.97
2022-11-05T17:26:51.600Z,99967.44
2022-11-05T17:29:18.879Z,99964.81
2022-11-05T17:31:46.176Z,99934.31
2022-11-05T17:34:13.385Z,99972.53
2022-11-05T17:36:40.672Z,99961.47
2022-11-05T17:39:08.001Z,99954.56
2022-11-05T17:41:35.310Z,99965.81
2022-11-05T17:44:02.527Z,99972.84
2022-11-05T17:46:29.839Z,99967.84
2022-11-05T17:48:57.035Z,99990.06
2022-11-05T17:51:24.355Z,99986.91
2022-11-05T17:53:51.731Z,99988.50
2022-11-05T17:56:32.129Z,99985.13
2022-11-05T17:59:02.510Z,99977.63
2022-11-05T18:01:32.854Z,99978.00
2022-11-05T18:04:07.220Z,99987.78
2022-11-05T18:06:40.146Z,100005.91
2022-11-05T18:09:09.177Z,100000.81
2022-11-05T18:11:37.344Z,99985.28
2022-11-05T18:14:05.211Z,99927.25
2022-11-05T18:16:32.943Z,99967.47
2022-11-05T18:19:00.753Z,99978.59
2022-11-05T18:21:28.242Z,99995.97
2022-11-05T18:23:55.558Z,99970.19
2022-11-05T18:26:23.032Z,100004.53
2022-11-05T18:28:50.330Z,100003.63
2022-11-05T18:31:23.327Z,99992.72
2022-11-05T18:33:51.494Z,99996.78
2022-11-05T18:36:23.861Z,100000.19
2022-11-05T18:38:51.299Z,100011.63
2022-11-05T18:41:19.975Z,100011.75
2022-11-05T18:43:47.736Z,100020.25
2022-11-05T18:46:36.048Z,99998.66
2022-11-05T18:49:03.293Z,100004.03
2022-11-05T18:51:30.897Z,100023.81
2022-11-05T18:53:58.621Z,99997.31
2022-11-05T18:56:25.920Z,100017.00
2022-11-05T18:59:14.840Z,100031.47
2022-11-05T19:01:41.763Z,100018.78
2022-11-05T19:04:09.470Z,100032.31
2022-11-05T19:06:37.401Z,100028.91
2022-11-05T19:09:06.870Z,100016.94
2022-11-05T19:11:34.186Z,99998.97
2022-11-05T19:14:01.440Z,100025.81
2022-11-05T19:16:30.655Z,100008.94
2022-11-05T19:18:59.790Z,100036.28
2022-11-05T19:21:27.915Z,100003.63
2022-11-05T19:23:59.587Z,100036.34
2022-11-05T19:26:29.013Z,100003.69
2022-11-05T19:29:02.410Z,100051.06
2022-11-05T19:31:30.841Z,100049.25
2022-11-05T19:33:59.090Z,100049.09
2022-11-05T19:36:27.142Z,100046.31
2022-11-05T19:39:00.014Z,100048.88
2022-11-05T19:41:27.869Z,100046.31
2022-11-05T19:43:59.835Z,100048.38
2022-11-05T19:46:29.752Z,100078.19
2022-11-05T19:48:58.088Z,100080.66
2022-11-05T19:51:27.703Z,100060.31
2022-11-05T19:53:56.584Z,100068.19
2022-11-05T19:56:28.190Z,100093.63
2022-11-05T19:58:56.814Z,100091.84
2022-11-05T20:01:25.991Z,100073.34
2022-11-05T20:03:55.980Z,100113.69
2022-11-05T20:06:31.907Z,100083.72
2022-11-05T20:11:56.494Z,100100.94
2022-11-05T20:14:27.188Z,100116.56
2022-11-05T20:16:54.336Z,100115.78
2022-11-05T20:19:22.810Z,100120.09
2022-11-05T20:21:50.134Z,100096.25
2022-11-05T20:24:24.099Z,100120.09
2022-11-05T20:26:56.183Z,100115.00
2022-11-05T20:29:27.839Z,100111.69
2022-11-05T20:31:58.087Z,100096.44
2022-11-05T20:34:25.313Z,100087.16
2022-11-05T20:36:52.501Z,100095.66
2022-11-05T20:39:21.207Z,100094.13
2022-11-05T20:41:48.534Z,100111.31
2022-11-05T20:44:15.798Z,100101.41
2022-11-05T20:46:43.059Z,100134.63
2022-11-05T20:49:10.616Z,100112.66
2022-11-05T20:51:38.059Z,100143.38
2022-11-05T20:54:05.699Z,100139.88
2022-11-05T20:56:37.140Z,100136.38
2022-11-05T20:59:05.485Z,100156.63
2022-11-05T21:01:34.213Z,100140.41
2022-11-05T21:04:02.876Z,100156.00
2022-11-05T21:06:30.627Z,100151.72
2022-11-05T21:08:58.106Z,100146.94
2022-11-05T21:11:25.605Z,100134.78
2022-11-05T21:13:52.969Z,100147.63
2022-11-05T21:16:21.068Z,100149.41
2022-11-05T21:18:48.634Z,100149.47
2022-11-05T21:21:23.095Z,100133.06
2022-11-05T21:23:54.956Z,100135.69
2022-11-05T21:26:25.895Z,100148.72
2022-11-05T21:28:53.218Z,100122.41
2022-11-05T21:31:20.478Z,100154.13
2022-11-05T21:33:53.982Z,100130.88
2022-11-05T21:36:22.343Z,100137.09
2022-11-05T21:38:49.623Z,100145.78
2022-11-05T21:41:16.887Z,100160.94
2022-11-05T21:43:44.751Z,100141.13
2022-11-05T21:46:13.419Z,100124.84
2022-11-05T21:48:40.652Z,100142.94
2022-11-05T21:51:28.634Z,100159.34
2022-11-05T21:54:16.390Z,100138.84
2022-11-05T21:57:07.073Z,100134.50
2022-11-05T21:59:51.805Z,100137.78
2022-11-05T22:02:22.281Z,100166.25
2022-11-05T22:04:52.576Z,100147.59
2022-11-05T22:07:23.193Z,100144.66
2022-11-05T22:09:50.770Z,100168.56
2022-11-05T22:12:18.174Z,100182.56
2022-11-05T22:14:45.401Z,100177.56
2022-11-05T22:17:13.767Z,100141.22
2022-11-05T22:19:41.037Z,100180.63
2022-11-05T22:22:08.655Z,100164.19
2022-11-05T22:24:36.551Z,100166.31
2022-11-05T22:27:07.326Z,100188.53
2022-11-05T22:29:36.401Z,100174.25
2022-11-05T22:32:04.265Z,100156.88
2022-11-05T22:34:31.751Z,100206.31
2022-11-05T22:36:59.357Z,100182.03
2022-11-05T22:39:26.607Z,100185.09
2022-11-05T22:41:57.928Z,100193.56
2022-11-05T22:44:26.583Z,100190.59
2022-11-05T22:46:54.798Z,100163.78
2022-11-05T22:49:22.186Z,100190.41
2022-11-05T22:51:49.394Z,100137.91
2022-11-05T22:54:16.726Z,100151.78
2022-11-05T22:56:44.018Z,100159.25
2022-11-05T22:59:15.653Z,100190.16
2022-11-05T23:01:44.968Z,100183.06
2022-11-05T23:04:13.352Z,100186.13
2022-11-05T23:06:59.502Z,100194.06
2022-11-05T23:09:52.015Z,100193.72
2022-11-05T23:12:22.339Z,100200.53
2022-11-05T23:14:50.005Z,100204.28
2022-11-05T23:17:36.075Z,100174.34
2022-11-05T23:20:30.321Z,100186.59
2022-11-05T23:23:16.855Z,100181.72
2022-11-05T23:25:44.470Z,100181.09
2022-11-05T23:28:12.661Z,100178.13
2022-11-05T23:31:02.209Z,100171.63
2022-11-05T23:33:33.722Z,100194.56
2022-11-05T23:36:20.058Z,100189.06
2022-11-05T23:38:47.497Z,100153.94
2022-11-05T23:41:33.727Z,100168.00
2022-11-05T23:44:19.498Z,100148.06
2022-11-05T23:47:05.335Z,100180.59
2022-11-05T23:49:32.625Z,100188.16
2022-11-05T23:52:00.331Z,100177.91
2022-11-05T23:54:27.645Z,100125.63
2022-11-05T23:56:54.925Z,100160.28
2022-11-05T23:59:22.197Z,100182.75
